sensor_id;sensor_type;location;lat;lon;timestamp;P1;durP1;ratioP1;P2;durP2;ratioP2
12846;SDS011;6492;48.128;8.320;2022-10-31T00:00:31;5.43;;;1.80;;
12846;SDS011;6492;48.128;8.320;2022-10-31T00:04:33;3.37;;;1.37;;
12846;SDS011;6492;48.128;8.320;2022-10-31T00:08:35;2.70;;;1.30;;
12846;SDS011;6492;48.128;8.320;2022-10-31T00:12:37;4.17;;;1.80;;
12846;SDS011;6492;48.128;8.320;2022-10-31T00:16:40;3.43;;;1.60;;
12846;SDS011;6492;48.128;8.320;2022-10-31T00:20:41;3.87;;;1.37;;
12846;SDS011;6492;48.128;8.320;2022-10-31T00:24:43;7.13;;;2.10;;
12846;SDS011;6492;48.128;8.320;2022-10-31T00:28:45;2.07;;;1.70;;
12846;SDS011;6492;48.128;8.320;2022-10-31T00:32:48;4.07;;;1.80;;
12846;SDS011;6492;48.128;8.320;2022-10-31T00:36:50;4.33;;;1.70;;
12846;SDS011;6492;48.128;8.320;2022-10-31T00:40:52;3.50;;;1.90;;
12846;SDS011;6492;48.128;8.320;2022-10-31T00:44:54;5.90;;;1.70;;
12846;SDS011;6492;48.128;8.320;2022-10-31T00:48:57;3.67;;;1.63;;
12846;SDS011;6492;48.128;8.320;2022-10-31T00:52:59;2.37;;;1.63;;
12846;SDS011;6492;48.128;8.320;2022-10-31T00:57:00;3.07;;;1.60;;
12846;SDS011;6492;48.128;8.320;2022-10-31T01:01:04;4.10;;;1.60;;
12846;SDS011;6492;48.128;8.320;2022-10-31T01:05:08;2.77;;;1.67;;
12846;SDS011;6492;48.128;8.320;2022-10-31T01:09:09;3.60;;;1.40;;
12846;SDS011;6492;48.128;8.320;2022-10-31T01:13:12;2.97;;;2.07;;
12846;SDS011;6492;48.128;8.320;2022-10-31T01:17:14;4.50;;;2.13;;
12846;SDS011;6492;48.128;8.320;2022-10-31T01:21:18;4.37;;;1.73;;
12846;SDS011;6492;48.128;8.320;2022-10-31T01:25:20;3.80;;;2.10;;
12846;SDS011;6492;48.128;8.320;2022-10-31T01:29:22;5.87;;;1.90;;
12846;SDS011;6492;48.128;8.320;2022-10-31T01:33:24;2.73;;;1.73;;
12846;SDS011;6492;48.128;8.320;2022-10-31T01:37:27;4.20;;;2.10;;
12846;SDS011;6492;48.128;8.320;2022-10-31T01:41:30;4.60;;;1.93;;
12846;SDS011;6492;48.128;8.320;2022-10-31T01:45:34;2.97;;;1.57;;
12846;SDS011;6492;48.128;8.320;2022-10-31T01:49:37;5.20;;;1.50;;
12846;SDS011;6492;48.128;8.320;2022-10-31T01:53:44;5.17;;;1.90;;
12846;SDS011;6492;48.128;8.320;2022-10-31T01:57:48;5.17;;;1.80;;
12846;SDS011;6492;48.128;8.320;2022-10-31T02:01:52;3.90;;;1.63;;
12846;SDS011;6492;48.128;8.320;2022-10-31T02:05:55;2.10;;;1.60;;
12846;SDS011;6492;48.128;8.320;2022-10-31T02:09:59;2.50;;;1.30;;
12846;SDS011;6492;48.128;8.320;2022-10-31T02:14:03;3.33;;;1.70;;
12846;SDS011;6492;48.128;8.320;2022-10-31T02:18:05;2.07;;;1.33;;
12846;SDS011;6492;48.128;8.320;2022-10-31T02:22:09;4.07;;;1.73;;
12846;SDS011;6492;48.128;8.320;2022-10-31T02:26:31;2.70;;;1.53;;
12846;SDS011;6492;48.128;8.320;2022-10-31T02:30:55;3.23;;;1.60;;
12846;SDS011;6492;48.128;8.320;2022-10-31T02:35:06;4.17;;;1.83;;
12846;SDS011;6492;48.128;8.320;2022-10-31T02:39:14;3.53;;;1.70;;
12846;SDS011;6492;48.128;8.320;2022-10-31T02:43:26;4.80;;;1.80;;
12846;SDS011;6492;48.128;8.320;2022-10-31T02:47:33;2.90;;;1.80;;
12846;SDS011;6492;48.128;8.320;2022-10-31T02:51:38;2.27;;;1.70;;
12846;SDS011;6492;48.128;8.320;2022-10-31T02:55:48;2.87;;;1.50;;
12846;SDS011;6492;48.128;8.320;2022-10-31T03:00:09;3.03;;;1.70;;
12846;SDS011;6492;48.128;8.320;2022-10-31T03:09:15;2.90;;;1.67;;
12846;SDS011;6492;48.128;8.320;2022-10-31T03:13:27;4.00;;;1.70;;
12846;SDS011;6492;48.128;8.320;2022-10-31T03:17:37;3.37;;;1.90;;
12846;SDS011;6492;48.128;8.320;2022-10-31T03:21:44;4.53;;;1.77;;
12846;SDS011;6492;48.128;8.320;2022-10-31T03:25:49;2.70;;;1.43;;
12846;SDS011;6492;48.128;8.320;2022-10-31T03:29:55;3.60;;;1.83;;
12846;SDS011;6492;48.128;8.320;2022-10-31T03:33:59;4.77;;;1.77;;
12846;SDS011;6492;48.128;8.320;2022-10-31T03:38:03;3.37;;;1.80;;
12846;SDS011;6492;48.128;8.320;2022-10-31T03:42:09;4.63;;;2.10;;
12846;SDS011;6492;48.128;8.320;2022-10-31T03:46:14;2.53;;;1.70;;
12846;SDS011;6492;48.128;8.320;2022-10-31T03:50:16;3.37;;;1.87;;
12846;SDS011;6492;48.128;8.320;2022-10-31T03:54:20;6.03;;;1.90;;
12846;SDS011;6492;48.128;8.320;2022-10-31T03:58:27;3.43;;;1.80;;
12846;SDS011;6492;48.128;8.320;2022-10-31T04:02:38;3.17;;;1.70;;
12846;SDS011;6492;48.128;8.320;2022-10-31T04:06:42;4.77;;;1.97;;
12846;SDS011;6492;48.128;8.320;2022-10-31T04:10:47;3.73;;;1.73;;
12846;SDS011;6492;48.128;8.320;2022-10-31T04:14:52;3.00;;;1.70;;
12846;SDS011;6492;48.128;8.320;2022-10-31T04:18:55;5.17;;;2.10;;
12846;SDS011;6492;48.128;8.320;2022-10-31T04:22:57;5.13;;;2.13;;
12846;SDS011;6492;48.128;8.320;2022-10-31T04:26:59;6.43;;;2.20;;
12846;SDS011;6492;48.128;8.320;2022-10-31T04:31:02;4.17;;;2.00;;
12846;SDS011;6492;48.128;8.320;2022-10-31T04:35:04;4.03;;;1.73;;
12846;SDS011;6492;48.128;8.320;2022-10-31T04:39:06;5.83;;;2.40;;
12846;SDS011;6492;48.128;8.320;2022-10-31T04:43:08;4.43;;;1.83;;
12846;SDS011;6492;48.128;8.320;2022-10-31T04:47:11;2.93;;;1.50;;
12846;SDS011;6492;48.128;8.320;2022-10-31T04:51:13;3.67;;;2.20;;
12846;SDS011;6492;48.128;8.320;2022-10-31T04:55:15;4.67;;;2.17;;
12846;SDS011;6492;48.128;8.320;2022-10-31T04:59:17;5.17;;;1.77;;
12846;SDS011;6492;48.128;8.320;2022-10-31T05:03:20;4.53;;;1.90;;
12846;SDS011;6492;48.128;8.320;2022-10-31T05:07:22;1.80;;;1.70;;
12846;SDS011;6492;48.128;8.320;2022-10-31T05:11:23;2.77;;;1.90;;
12846;SDS011;6492;48.128;8.320;2022-10-31T05:15:26;5.47;;;2.30;;
12846;SDS011;6492;48.128;8.320;2022-10-31T05:19:30;3.77;;;2.10;;
12846;SDS011;6492;48.128;8.320;2022-10-31T05:23:32;5.63;;;2.37;;
12846;SDS011;6492;48.128;8.320;2022-10-31T05:27:33;3.80;;;2.10;;
12846;SDS011;6492;48.128;8.320;2022-10-31T05:31:35;3.73;;;2.30;;
12846;SDS011;6492;48.128;8.320;2022-10-31T05:35:38;3.23;;;1.90;;
12846;SDS011;6492;48.128;8.320;2022-10-31T05:39:42;5.20;;;2.20;;
12846;SDS011;6492;48.128;8.320;2022-10-31T05:43:44;4.17;;;1.90;;
12846;SDS011;6492;48.128;8.320;2022-10-31T05:47:49;4.57;;;2.10;;
12846;SDS011;6492;48.128;8.320;2022-10-31T05:51:53;3.73;;;2.27;;
12846;SDS011;6492;48.128;8.320;2022-10-31T05:55:55;6.23;;;2.40;;
12846;SDS011;6492;48.128;8.320;2022-10-31T05:59:57;5.20;;;2.50;;
12846;SDS011;6492;48.128;8.320;2022-10-31T06:03:59;5.73;;;2.07;;
12846;SDS011;6492;48.128;8.320;2022-10-31T06:08:02;3.87;;;2.37;;
12846;SDS011;6492;48.128;8.320;2022-10-31T06:12:04;4.17;;;2.07;;
12846;SDS011;6492;48.128;8.320;2022-10-31T06:16:07;3.13;;;1.90;;
12846;SDS011;6492;48.128;8.320;2022-10-31T06:20:09;2.83;;;1.70;;
12846;SDS011;6492;48.128;8.320;2022-10-31T06:24:13;4.00;;;1.73;;
12846;SDS011;6492;48.128;8.320;2022-10-31T06:28:15;3.27;;;2.00;;
12846;SDS011;6492;48.128;8.320;2022-10-31T06:32:17;5.07;;;2.20;;
12846;SDS011;6492;48.128;8.320;2022-10-31T06:36:19;2.63;;;1.73;;
12846;SDS011;6492;48.128;8.320;2022-10-31T06:40:22;5.60;;;2.10;;
12846;SDS011;6492;48.128;8.320;2022-10-31T06:44:24;5.73;;;2.20;;
12846;SDS011;6492;48.128;8.320;2022-10-31T06:48:26;8.13;;;2.67;;
12846;SDS011;6492;48.128;8.320;2022-10-31T06:52:28;7.93;;;2.53;;
12846;SDS011;6492;48.128;8.320;2022-10-31T06:56:31;8.53;;;2.83;;
12846;SDS011;6492;48.128;8.320;2022-10-31T07:00:33;14.87;;;2.80;;
12846;SDS011;6492;48.128;8.320;2022-10-31T07:04:35;19.17;;;3.40;;
12846;SDS011;6492;48.128;8.320;2022-10-31T07:08:37;13.40;;;3.17;;
12846;SDS011;6492;48.128;8.320;2022-10-31T07:12:40;5.00;;;1.87;;
12846;SDS011;6492;48.128;8.320;2022-10-31T07:16:42;5.13;;;2.10;;
12846;SDS011;6492;48.128;8.320;2022-10-31T07:20:44;5.17;;;1.83;;
12846;SDS011;6492;48.128;8.320;2022-10-31T07:24:45;5.07;;;2.10;;
12846;SDS011;6492;48.128;8.320;2022-10-31T07:28:49;4.27;;;2.03;;
12846;SDS011;6492;48.128;8.320;2022-10-31T07:32:50;5.30;;;2.00;;
12846;SDS011;6492;48.128;8.320;2022-10-31T07:36:52;6.77;;;2.20;;
12846;SDS011;6492;48.128;8.320;2022-10-31T07:40:54;6.80;;;2.30;;
12846;SDS011;6492;48.128;8.320;2022-10-31T07:44:57;8.30;;;2.50;;
12846;SDS011;6492;48.128;8.320;2022-10-31T07:48:59;6.13;;;2.13;;
12846;SDS011;6492;48.128;8.320;2022-10-31T07:53:01;8.13;;;2.10;;
12846;SDS011;6492;48.128;8.320;2022-10-31T07:57:04;4.03;;;2.10;;
12846;SDS011;6492;48.128;8.320;2022-10-31T08:01:08;4.47;;;2.33;;
12846;SDS011;6492;48.128;8.320;2022-10-31T08:05:10;3.93;;;2.00;;
12846;SDS011;6492;48.128;8.320;2022-10-31T08:09:11;3.83;;;2.03;;
12846;SDS011;6492;48.128;8.320;2022-10-31T08:13:13;3.70;;;2.90;;
12846;SDS011;6492;48.128;8.320;2022-10-31T08:17:17;4.10;;;2.50;;
12846;SDS011;6492;48.128;8.320;2022-10-31T08:21:18;4.73;;;2.90;;
12846;SDS011;6492;48.128;8.320;2022-10-31T08:25:20;3.73;;;2.27;;
12846;SDS011;6492;48.128;8.320;2022-10-31T08:29:22;2.67;;;2.03;;
12846;SDS011;6492;48.128;8.320;2022-10-31T08:33:25;3.03;;;2.07;;
12846;SDS011;6492;48.128;8.320;2022-10-31T08:37:27;2.27;;;1.83;;
12846;SDS011;6492;48.128;8.320;2022-10-31T08:41:29;4.25;;;2.15;;
12846;SDS011;6492;48.128;8.320;2022-10-31T08:45:31;5.20;;;2.30;;
12846;SDS011;6492;48.128;8.320;2022-10-31T08:49:36;5.10;;;2.35;;
12846;SDS011;6492;48.128;8.320;2022-10-31T08:53:38;3.67;;;1.85;;
12846;SDS011;6492;48.128;8.320;2022-10-31T08:57:40;5.00;;;2.17;;
12846;SDS011;6492;48.128;8.320;2022-10-31T09:01:41;3.53;;;1.85;;
12846;SDS011;6492;48.128;8.320;2022-10-31T09:05:45;3.03;;;1.60;;
12846;SDS011;6492;48.128;8.320;2022-10-31T09:09:47;3.35;;;2.05;;
12846;SDS011;6492;48.128;8.320;2022-10-31T09:13:49;3.22;;;1.85;;
12846;SDS011;6492;48.128;8.320;2022-10-31T09:17:53;4.82;;;2.67;;
12846;SDS011;6492;48.128;8.320;2022-10-31T09:21:56;7.05;;;2.30;;
12846;SDS011;6492;48.128;8.320;2022-10-31T09:25:59;6.13;;;2.40;;
12846;SDS011;6492;48.128;8.320;2022-10-31T09:30:01;2.92;;;2.08;;
12846;SDS011;6492;48.128;8.320;2022-10-31T09:34:03;4.50;;;2.20;;
12846;SDS011;6492;48.128;8.320;2022-10-31T09:38:08;2.97;;;2.03;;
12846;SDS011;6492;48.128;8.320;2022-10-31T09:42:19;3.92;;;2.25;;
12846;SDS011;6492;48.128;8.320;2022-10-31T09:46:36;4.60;;;1.98;;
12846;SDS011;6492;48.128;8.320;2022-10-31T09:50:49;4.53;;;2.28;;
12846;SDS011;6492;48.128;8.320;2022-10-31T09:54:56;2.40;;;2.13;;
12846;SDS011;6492;48.128;8.320;2022-10-31T09:59:02;5.03;;;2.00;;
12846;SDS011;6492;48.128;8.320;2022-10-31T10:03:07;4.15;;;2.20;;
12846;SDS011;6492;48.128;8.320;2022-10-31T10:07:16;5.95;;;2.15;;
12846;SDS011;6492;48.128;8.320;2022-10-31T10:11:43;3.20;;;2.00;;
12846;SDS011;6492;48.128;8.320;2022-10-31T10:15:59;4.75;;;2.30;;
12846;SDS011;6492;48.128;8.320;2022-10-31T10:24:32;3.58;;;2.10;;
12846;SDS011;6492;48.128;8.320;2022-10-31T10:28:47;5.13;;;2.13;;
12846;SDS011;6492;48.128;8.320;2022-10-31T10:32:53;4.07;;;2.50;;
12846;SDS011;6492;48.128;8.320;2022-10-31T10:36:59;4.60;;;2.40;;
12846;SDS011;6492;48.128;8.320;2022-10-31T10:41:04;4.15;;;2.60;;
12846;SDS011;6492;48.128;8.320;2022-10-31T10:45:15;3.90;;;2.08;;
12846;SDS011;6492;48.128;8.320;2022-10-31T10:49:37;5.05;;;2.83;;
12846;SDS011;6492;48.128;8.320;2022-10-31T10:53:47;4.97;;;2.85;;
12846;SDS011;6492;48.128;8.320;2022-10-31T10:58:03;6.13;;;2.90;;
12846;SDS011;6492;48.128;8.320;2022-10-31T11:02:15;3.05;;;2.55;;
12846;SDS011;6492;48.128;8.320;2022-10-31T11:06:18;5.05;;;2.78;;
12846;SDS011;6492;48.128;8.320;2022-10-31T11:10:25;4.20;;;2.53;;
12846;SDS011;6492;48.128;8.320;2022-10-31T11:14:27;4.80;;;2.38;;
12846;SDS011;6492;48.128;8.320;2022-10-31T11:18:31;6.03;;;2.70;;
12846;SDS011;6492;48.128;8.320;2022-10-31T11:22:35;5.88;;;2.70;;
12846;SDS011;6492;48.128;8.320;2022-10-31T11:30:47;5.30;;;3.10;;
12846;SDS011;6492;48.128;8.320;2022-10-31T11:34:53;5.10;;;2.95;;
12846;SDS011;6492;48.128;8.320;2022-10-31T11:38:58;4.43;;;2.50;;
12846;SDS011;6492;48.128;8.320;2022-10-31T11:43:02;5.13;;;2.50;;
12846;SDS011;6492;48.128;8.320;2022-10-31T11:47:04;8.05;;;2.88;;
12846;SDS011;6492;48.128;8.320;2022-10-31T11:51:12;5.72;;;3.08;;
12846;SDS011;6492;48.128;8.320;2022-10-31T11:55:29;9.52;;;3.42;;
12846;SDS011;6492;48.128;8.320;2022-10-31T11:59:33;7.47;;;2.90;;
12846;SDS011;6492;48.128;8.320;2022-10-31T12:03:38;4.88;;;2.75;;
12846;SDS011;6492;48.128;8.320;2022-10-31T12:07:50;3.00;;;2.42;;
12846;SDS011;6492;48.128;8.320;2022-10-31T12:11:58;3.35;;;2.50;;
12846;SDS011;6492;48.128;8.320;2022-10-31T12:16:16;4.22;;;2.53;;
12846;SDS011;6492;48.128;8.320;2022-10-31T12:20:21;6.22;;;3.30;;
12846;SDS011;6492;48.128;8.320;2022-10-31T12:24:34;6.32;;;3.00;;
12846;SDS011;6492;48.128;8.320;2022-10-31T12:28:45;6.25;;;3.03;;
12846;SDS011;6492;48.128;8.320;2022-10-31T12:37:45;5.13;;;2.83;;
12846;SDS011;6492;48.128;8.320;2022-10-31T12:41:57;6.18;;;2.80;;
12846;SDS011;6492;48.128;8.320;2022-10-31T12:46:06;5.38;;;3.03;;
12846;SDS011;6492;48.128;8.320;2022-10-31T12:50:21;7.22;;;3.60;;
12846;SDS011;6492;48.128;8.320;2022-10-31T12:54:34;5.70;;;3.05;;
12846;SDS011;6492;48.128;8.320;2022-10-31T13:19:43;5.90;;;2.53;;
12846;SDS011;6492;48.128;8.320;2022-10-31T14:33:17;7.72;;;3.17;;
12846;SDS011;6492;48.128;8.320;2022-10-31T14:41:53;7.13;;;3.40;;
12846;SDS011;6492;48.128;8.320;2022-10-31T14:46:06;8.50;;;5.93;;
12846;SDS011;6492;48.128;8.320;2022-10-31T14:50:26;5.53;;;2.83;;
12846;SDS011;6492;48.128;8.320;2022-10-31T14:54:38;4.43;;;3.20;;
12846;SDS011;6492;48.128;8.320;2022-10-31T14:58:42;4.68;;;3.30;;
12846;SDS011;6492;48.128;8.320;2022-10-31T15:02:48;5.15;;;2.55;;
12846;SDS011;6492;48.128;8.320;2022-10-31T15:07:04;6.25;;;3.25;;
12846;SDS011;6492;48.128;8.320;2022-10-31T15:11:10;5.57;;;2.78;;
12846;SDS011;6492;48.128;8.320;2022-10-31T15:15:14;4.40;;;2.80;;
12846;SDS011;6492;48.128;8.320;2022-10-31T15:19:21;5.25;;;2.83;;
12846;SDS011;6492;48.128;8.320;2022-10-31T15:23:27;4.32;;;2.60;;
12846;SDS011;6492;48.128;8.320;2022-10-31T15:27:30;5.28;;;3.03;;
12846;SDS011;6492;48.128;8.320;2022-10-31T15:31:33;5.22;;;3.00;;
12846;SDS011;6492;48.128;8.320;2022-10-31T15:35:35;5.18;;;2.92;;
12846;SDS011;6492;48.128;8.320;2022-10-31T15:39:38;6.18;;;3.25;;
12846;SDS011;6492;48.128;8.320;2022-10-31T15:43:40;6.85;;;2.83;;
12846;SDS011;6492;48.128;8.320;2022-10-31T15:47:48;4.10;;;2.70;;
12846;SDS011;6492;48.128;8.320;2022-10-31T15:51:54;5.30;;;2.67;;
12846;SDS011;6492;48.128;8.320;2022-10-31T15:56:00;7.82;;;2.83;;
12846;SDS011;6492;48.128;8.320;2022-10-31T16:00:06;5.80;;;2.70;;
12846;SDS011;6492;48.128;8.320;2022-10-31T16:04:22;7.35;;;3.08;;
12846;SDS011;6492;48.128;8.320;2022-10-31T16:08:25;5.47;;;2.80;;
12846;SDS011;6492;48.128;8.320;2022-10-31T16:12:35;6.00;;;2.35;;
12846;SDS011;6492;48.128;8.320;2022-10-31T16:16:40;4.10;;;2.60;;
12846;SDS011;6492;48.128;8.320;2022-10-31T16:20:47;7.78;;;2.90;;
12846;SDS011;6492;48.128;8.320;2022-10-31T16:24:53;5.53;;;2.95;;
12846;SDS011;6492;48.128;8.320;2022-10-31T16:29:02;4.93;;;2.83;;
12846;SDS011;6492;48.128;8.320;2022-10-31T16:33:05;5.40;;;3.03;;
12846;SDS011;6492;48.128;8.320;2022-10-31T16:37:21;8.90;;;2.60;;
12846;SDS011;6492;48.128;8.320;2022-10-31T16:41:23;6.33;;;2.70;;
12846;SDS011;6492;48.128;8.320;2022-10-31T16:45:27;4.00;;;2.70;;
12846;SDS011;6492;48.128;8.320;2022-10-31T16:49:30;4.53;;;2.80;;
12846;SDS011;6492;48.128;8.320;2022-10-31T16:53:32;4.43;;;2.70;;
12846;SDS011;6492;48.128;8.320;2022-10-31T16:57:45;7.87;;;2.90;;
12846;SDS011;6492;48.128;8.320;2022-10-31T17:01:51;8.77;;;3.07;;
12846;SDS011;6492;48.128;8.320;2022-10-31T17:05:53;7.33;;;2.90;;
12846;SDS011;6492;48.128;8.320;2022-10-31T17:09:55;5.13;;;3.07;;
12846;SDS011;6492;48.128;8.320;2022-10-31T17:13:57;5.87;;;3.17;;
12846;SDS011;6492;48.128;8.320;2022-10-31T17:18:01;4.33;;;2.50;;
12846;SDS011;6492;48.128;8.320;2022-10-31T17:22:02;7.43;;;4.17;;
12846;SDS011;6492;48.128;8.320;2022-10-31T17:26:04;4.43;;;3.10;;
12846;SDS011;6492;48.128;8.320;2022-10-31T17:30:08;6.60;;;3.30;;
12846;SDS011;6492;48.128;8.320;2022-10-31T17:34:13;8.77;;;4.13;;
12846;SDS011;6492;48.128;8.320;2022-10-31T17:38:15;5.53;;;3.80;;
12846;SDS011;6492;48.128;8.320;2022-10-31T17:42:16;9.77;;;7.30;;
12846;SDS011;6492;48.128;8.320;2022-10-31T17:46:18;9.60;;;5.17;;
12846;SDS011;6492;48.128;8.320;2022-10-31T17:50:22;9.93;;;5.00;;
12846;SDS011;6492;48.128;8.320;2022-10-31T17:54:26;6.97;;;4.47;;
12846;SDS011;6492;48.128;8.320;2022-10-31T17:58:28;7.10;;;3.33;;
12846;SDS011;6492;48.128;8.320;2022-10-31T18:02:30;5.87;;;3.53;;
12846;SDS011;6492;48.128;8.320;2022-10-31T18:06:33;6.33;;;3.40;;
12846;SDS011;6492;48.128;8.320;2022-10-31T18:10:37;3.63;;;3.00;;
12846;SDS011;6492;48.128;8.320;2022-10-31T18:14:40;11.07;;;5.23;;
12846;SDS011;6492;48.128;8.320;2022-10-31T18:18:42;7.00;;;5.07;;
12846;SDS011;6492;48.128;8.320;2022-10-31T18:22:45;6.10;;;3.87;;
12846;SDS011;6492;48.128;8.320;2022-10-31T18:26:47;6.60;;;3.43;;
12846;SDS011;6492;48.128;8.320;2022-10-31T18:30:49;7.93;;;3.60;;
12846;SDS011;6492;48.128;8.320;2022-10-31T18:34:52;7.77;;;3.50;;
12846;SDS011;6492;48.128;8.320;2022-10-31T18:38:55;4.97;;;3.10;;
12846;SDS011;6492;48.128;8.320;2022-10-31T18:42:57;6.43;;;3.23;;
12846;SDS011;6492;48.128;8.320;2022-10-31T18:46:59;6.43;;;3.30;;
12846;SDS011;6492;48.128;8.320;2022-10-31T18:51:00;5.57;;;3.73;;
12846;SDS011;6492;48.128;8.320;2022-10-31T18:55:04;5.93;;;2.70;;
12846;SDS011;6492;48.128;8.320;2022-10-31T18:59:06;4.80;;;2.80;;
12846;SDS011;6492;48.128;8.320;2022-10-31T19:03:09;4.60;;;2.97;;
12846;SDS011;6492;48.128;8.320;2022-10-31T19:07:11;7.00;;;3.10;;
12846;SDS011;6492;48.128;8.320;2022-10-31T19:11:14;6.10;;;2.83;;
12846;SDS011;6492;48.128;8.320;2022-10-31T19:15:16;3.83;;;2.80;;
12846;SDS011;6492;48.128;8.320;2022-10-31T19:19:18;5.63;;;3.13;;
12846;SDS011;6492;48.128;8.320;2022-10-31T19:23:20;4.53;;;3.03;;
12846;SDS011;6492;48.128;8.320;2022-10-31T19:27:23;4.93;;;2.87;;
12846;SDS011;6492;48.128;8.320;2022-10-31T19:31:27;4.07;;;2.67;;
12846;SDS011;6492;48.128;8.320;2022-10-31T19:35:28;3.83;;;2.73;;
12846;SDS011;6492;48.128;8.320;2022-10-31T19:39:30;7.70;;;3.67;;
12846;SDS011;6492;48.128;8.320;2022-10-31T19:43:33;5.40;;;3.00;;
12846;SDS011;6492;48.128;8.320;2022-10-31T19:47:35;6.73;;;3.13;;
12846;SDS011;6492;48.128;8.320;2022-10-31T19:51:37;7.00;;;3.40;;
12846;SDS011;6492;48.128;8.320;2022-10-31T19:55:40;8.00;;;3.27;;
12846;SDS011;6492;48.128;8.320;2022-10-31T19:59:44;5.83;;;3.23;;
12846;SDS011;6492;48.128;8.320;2022-10-31T20:03:46;6.77;;;3.37;;
12846;SDS011;6492;48.128;8.320;2022-10-31T20:07:48;5.50;;;3.20;;
12846;SDS011;6492;48.128;8.320;2022-10-31T20:11:50;6.43;;;2.87;;
12846;SDS011;6492;48.128;8.320;2022-10-31T20:15:56;3.77;;;2.87;;
12846;SDS011;6492;48.128;8.320;2022-10-31T20:19:59;6.23;;;3.20;;
12846;SDS011;6492;48.128;8.320;2022-10-31T20:24:06;6.20;;;4.33;;
12846;SDS011;6492;48.128;8.320;2022-10-31T20:28:09;9.27;;;4.37;;
12846;SDS011;6492;48.128;8.320;2022-10-31T20:32:13;11.03;;;4.67;;
12846;SDS011;6492;48.128;8.320;2022-10-31T20:36:14;9.30;;;4.73;;
12846;SDS011;6492;48.128;8.320;2022-10-31T20:40:20;9.03;;;4.17;;
12846;SDS011;6492;48.128;8.320;2022-10-31T20:44:21;7.97;;;4.23;;
12846;SDS011;6492;48.128;8.320;2022-10-31T20:48:25;10.57;;;4.37;;
12846;SDS011;6492;48.128;8.320;2022-10-31T20:52:26;7.00;;;4.10;;
12846;SDS011;6492;48.128;8.320;2022-10-31T20:56:28;8.87;;;4.40;;
12846;SDS011;6492;48.128;8.320;2022-10-31T21:00:30;7.70;;;4.30;;
12846;SDS011;6492;48.128;8.320;2022-10-31T21:04:33;7.87;;;4.03;;
12846;SDS011;6492;48.128;8.320;2022-10-31T21:08:35;8.33;;;4.10;;
12846;SDS011;6492;48.128;8.320;2022-10-31T21:12:38;5.87;;;3.67;;
12846;SDS011;6492;48.128;8.320;2022-10-31T21:16:40;6.77;;;4.20;;
12846;SDS011;6492;48.128;8.320;2022-10-31T21:20:43;4.33;;;3.47;;
12846;SDS011;6492;48.128;8.320;2022-10-31T21:24:45;5.33;;;3.73;;
12846;SDS011;6492;48.128;8.320;2022-10-31T21:28:47;5.90;;;4.47;;
12846;SDS011;6492;48.128;8.320;2022-10-31T21:32:49;7.93;;;5.07;;
12846;SDS011;6492;48.128;8.320;2022-10-31T21:36:52;7.47;;;5.73;;
12846;SDS011;6492;48.128;8.320;2022-10-31T21:40:58;7.17;;;5.70;;
12846;SDS011;6492;48.128;8.320;2022-10-31T21:45:01;8.97;;;6.97;;
12846;SDS011;6492;48.128;8.320;2022-10-31T21:49:04;7.00;;;5.60;;
12846;SDS011;6492;48.128;8.320;2022-10-31T21:53:07;5.23;;;4.50;;
12846;SDS011;6492;48.128;8.320;2022-10-31T21:57:23;6.10;;;3.50;;
12846;SDS011;6492;48.128;8.320;2022-10-31T22:01:25;5.37;;;2.57;;
12846;SDS011;6492;48.128;8.320;2022-10-31T22:05:28;7.20;;;2.50;;
12846;SDS011;6492;48.128;8.320;2022-10-31T22:09:31;5.47;;;2.37;;
12846;SDS011;6492;48.128;8.320;2022-10-31T22:13:33;3.50;;;2.10;;
12846;SDS011;6492;48.128;8.320;2022-10-31T22:17:36;4.23;;;2.50;;
12846;SDS011;6492;48.128;8.320;2022-10-31T22:21:38;5.90;;;3.00;;
12846;SDS011;6492;48.128;8.320;2022-10-31T22:25:43;6.73;;;2.67;;
12846;SDS011;6492;48.128;8.320;2022-10-31T22:29:44;6.13;;;2.53;;
12846;SDS011;6492;48.128;8.320;2022-10-31T22:33:46;5.83;;;2.30;;
12846;SDS011;6492;48.128;8.320;2022-10-31T22:37:48;7.57;;;2.80;;
12846;SDS011;6492;48.128;8.320;2022-10-31T22:41:51;7.63;;;3.00;;
12846;SDS011;6492;48.128;8.320;2022-10-31T22:45:53;4.13;;;2.60;;
12846;SDS011;6492;48.128;8.320;2022-10-31T22:49:59;5.53;;;2.40;;
12846;SDS011;6492;48.128;8.320;2022-10-31T22:54:01;5.97;;;2.40;;
12846;SDS011;6492;48.128;8.320;2022-10-31T22:58:04;4.77;;;2.50;;
12846;SDS011;6492;48.128;8.320;2022-10-31T23:02:06;4.53;;;2.83;;
12846;SDS011;6492;48.128;8.320;2022-10-31T23:06:08;5.23;;;2.60;;
12846;SDS011;6492;48.128;8.320;2022-10-31T23:10:13;6.30;;;2.23;;
12846;SDS011;6492;48.128;8.320;2022-10-31T23:14:18;5.73;;;2.80;;
12846;SDS011;6492;48.128;8.320;2022-10-31T23:18:20;6.90;;;3.00;;
12846;SDS011;6492;48.128;8.320;2022-10-31T23:22:22;4.83;;;2.83;;
12846;SDS011;6492;48.128;8.320;2022-10-31T23:26:32;6.50;;;2.80;;
12846;SDS011;6492;48.128;8.320;2022-10-31T23:30:52;4.07;;;2.57;;
12846;SDS011;6492;48.128;8.320;2022-10-31T23:34:55;4.90;;;2.60;;
12846;SDS011;6492;48.128;8.320;2022-10-31T23:38:58;5.63;;;2.63;;
12846;SDS011;6492;48.128;8.320;2022-10-31T23:43:00;5.97;;;2.87;;
12846;SDS011;6492;48.128;8.320;2022-10-31T23:47:03;7.73;;;3.10;;
12846;SDS011;6492;48.128;8.320;2022-10-31T23:51:05;6.50;;;2.80;;
12846;SDS011;6492;48.128;8.320;2022-10-31T23:55:07;6.63;;;2.70;;
12846;SDS011;6492;48.128;8.320;2022-10-31T23:59:09;5.60;;;2.67;;
